Terminal Aerodrome Forecast
Issued by NWS Wakefield, VA

Home | Current Version | Previous Version | Text Only | Print | Product List | Glossary On
Versions: 1 2 3 4 5 6 7 8 9 10 11 12 13 14
382
FTUS41 KAKQ 271743
TAFECG
TAF
KECG 271743Z 2718/2818 00000KT P6SM SCT040
     FM272200 16006KT P6SM VCSH BKN070
     FM280500 VRB03KT P6SM BKN150
     FM281000 21003KT 4SM BR SKC=

USA.gov is the U.S. government's official web portal to all federal, state and local government web resources and services.